sensor_id;sensor_type;location;lat;lon;timestamp;pressure;altitude;pressure_sealevel;temperature
64394;BMP280;50712;49.506;10.400;2024-03-22T00:00:03;98714.94;;;12.03
64394;BMP280;50712;49.506;10.400;2024-03-22T00:00:42;98721.59;;;12.02
64394;BMP280;50712;49.506;10.400;2024-03-22T00:01:19;98717.34;;;12.01
64394;BMP280;50712;49.506;10.400;2024-03-22T00:01:50;98715.78;;;12.00
64394;BMP280;50712;49.506;10.400;2024-03-22T00:02:21;98717.75;;;11.99
64394;BMP280;50712;49.506;10.400;2024-03-22T00:02:51;98716.22;;;11.98
64394;BMP280;50712;49.506;10.400;2024-03-22T00:03:21;98713.47;;;11.98
64394;BMP280;50712;49.506;10.400;2024-03-22T00:03:52;98720.94;;;11.98
64394;BMP280;50712;49.506;10.400;2024-03-22T00:04:22;98717.44;;;11.97
64394;BMP280;50712;49.506;10.400;2024-03-22T00:04:53;98709.69;;;11.96
64394;BMP280;50712;49.506;10.400;2024-03-22T00:05:23;98711.63;;;11.95
64394;BMP280;50712;49.506;10.400;2024-03-22T00:05:54;98719.84;;;11.95
64394;BMP280;50712;49.506;10.400;2024-03-22T00:06:25;98719.09;;;11.95
64394;BMP280;50712;49.506;10.400;2024-03-22T00:06:55;98715.59;;;11.94
64394;BMP280;50712;49.506;10.400;2024-03-22T00:07:25;98715.59;;;11.94
64394;BMP280;50712;49.506;10.400;2024-03-22T00:07:56;98712.09;;;11.94
64394;BMP280;50712;49.506;10.400;2024-03-22T00:08:26;98714.03;;;11.93
64394;BMP280;50712;49.506;10.400;2024-03-22T00:08:56;98712.09;;;11.94
64394;BMP280;50712;49.506;10.400;2024-03-22T00:09:27;98710.53;;;11.93
64394;BMP280;50712;49.506;10.400;2024-03-22T00:09:57;98716.00;;;11.93
64394;BMP280;50712;49.506;10.400;2024-03-22T00:10:27;98716.44;;;11.91
64394;BMP280;50712;49.506;10.400;2024-03-22T00:10:58;98717.22;;;11.92
64394;BMP280;50712;49.506;10.400;2024-03-22T00:11:28;98719.19;;;11.91
64394;BMP280;50712;49.506;10.400;2024-03-22T00:11:59;98718.41;;;11.91
64394;BMP280;50712;49.506;10.400;2024-03-22T00:12:29;98719.63;;;11.90
64394;BMP280;50712;49.506;10.400;2024-03-22T00:13:00;98720.81;;;11.88
64394;BMP280;50712;49.506;10.400;2024-03-22T00:13:30;98725.19;;;11.86
64394;BMP280;50712;49.506;10.400;2024-03-22T00:14:01;98712.28;;;11.86
64394;BMP280;50712;49.506;10.400;2024-03-22T00:14:32;98725.94;;;11.86
64394;BMP280;50712;49.506;10.400;2024-03-22T00:15:03;98725.63;;;11.84
64394;BMP280;50712;49.506;10.400;2024-03-22T00:15:34;98719.38;;;11.84
64394;BMP280;50712;49.506;10.400;2024-03-22T00:16:04;98720.56;;;11.83
64394;BMP280;50712;49.506;10.400;2024-03-22T00:16:35;98721.81;;;11.82
64394;BMP280;50712;49.506;10.400;2024-03-22T00:17:06;98721.03;;;11.81
64394;BMP280;50712;49.506;10.400;2024-03-22T00:17:36;98709.34;;;11.81
64394;BMP280;50712;49.506;10.400;2024-03-22T00:18:07;98716.78;;;11.80
64394;BMP280;50712;49.506;10.400;2024-03-22T00:18:37;98714.03;;;11.80
64394;BMP280;50712;49.506;10.400;2024-03-22T00:19:07;98712.94;;;11.78
64394;BMP280;50712;49.506;10.400;2024-03-22T00:19:38;98709.00;;;11.79
64394;BMP280;50712;49.506;10.400;2024-03-22T00:20:08;98711.41;;;11.77
64394;BMP280;50712;49.506;10.400;2024-03-22T00:20:39;98712.59;;;11.76
64394;BMP280;50712;49.506;10.400;2024-03-22T00:21:09;98708.38;;;11.75
64394;BMP280;50712;49.506;10.400;2024-03-22T00:21:40;98705.63;;;11.75
64394;BMP280;50712;49.506;10.400;2024-03-22T00:22:10;98704.09;;;11.74
64394;BMP280;50712;49.506;10.400;2024-03-22T00:22:40;98706.06;;;11.73
64394;BMP280;50712;49.506;10.400;2024-03-22T00:23:11;98704.53;;;11.72
64394;BMP280;50712;49.506;10.400;2024-03-22T00:23:42;98706.50;;;11.72
64394;BMP280;50712;49.506;10.400;2024-03-22T00:24:14;98699.50;;;11.71
64394;BMP280;50712;49.506;10.400;2024-03-22T00:24:45;98697.19;;;11.69
64394;BMP280;50712;49.506;10.400;2024-03-22T00:25:15;98702.63;;;11.69
64394;BMP280;50712;49.506;10.400;2024-03-22T00:25:46;98704.63;;;11.69
64394;BMP280;50712;49.506;10.400;2024-03-22T00:26:16;98700.38;;;11.68
64394;BMP280;50712;49.506;10.400;2024-03-22T00:26:47;98696.09;;;11.67
64394;BMP280;50712;49.506;10.400;2024-03-22T00:27:19;98699.28;;;11.65
64394;BMP280;50712;49.506;10.400;2024-03-22T00:27:49;98702.00;;;11.65
64394;BMP280;50712;49.506;10.400;2024-03-22T00:28:20;98702.00;;;11.65
64394;BMP280;50712;49.506;10.400;2024-03-22T00:28:50;98696.97;;;11.64
64394;BMP280;50712;49.506;10.400;2024-03-22T00:29:20;98705.16;;;11.64
64394;BMP280;50712;49.506;10.400;2024-03-22T00:29:51;98702.09;;;11.62
64394;BMP280;50712;49.506;10.400;2024-03-22T00:30:22;98698.59;;;11.61
64394;BMP280;50712;49.506;10.400;2024-03-22T00:30:52;98701.31;;;11.61
64394;BMP280;50712;49.506;10.400;2024-03-22T00:31:22;98699.81;;;11.60
64394;BMP280;50712;49.506;10.400;2024-03-22T00:31:53;98699.03;;;11.60
64394;BMP280;50712;49.506;10.400;2024-03-22T00:32:23;98700.56;;;11.61
64394;BMP280;50712;49.506;10.400;2024-03-22T00:32:54;98696.31;;;11.60
64394;BMP280;50712;49.506;10.400;2024-03-22T00:33:24;98699.81;;;11.60
64394;BMP280;50712;49.506;10.400;2024-03-22T00:33:54;98702.53;;;11.60
64394;BMP280;50712;49.506;10.400;2024-03-22T00:34:25;98694.34;;;11.60
64394;BMP280;50712;49.506;10.400;2024-03-22T00:34:55;98695.88;;;11.61
64394;BMP280;50712;49.506;10.400;2024-03-22T00:35:26;98697.84;;;11.61
64394;BMP280;50712;49.506;10.400;2024-03-22T00:35:56;98698.59;;;11.61
64394;BMP280;50712;49.506;10.400;2024-03-22T00:36:26;98697.06;;;11.60
64394;BMP280;50712;49.506;10.400;2024-03-22T00:36:57;98701.03;;;11.59
64394;BMP280;50712;49.506;10.400;2024-03-22T00:37:27;98698.28;;;11.59
64394;BMP280;50712;49.506;10.400;2024-03-22T00:37:58;98697.94;;;11.57
64394;BMP280;50712;49.506;10.400;2024-03-22T00:38:28;98692.47;;;11.57
64394;BMP280;50712;49.506;10.400;2024-03-22T00:38:59;98695.66;;;11.56
64394;BMP280;50712;49.506;10.400;2024-03-22T00:39:29;98701.09;;;11.56
64394;BMP280;50712;49.506;10.400;2024-03-22T00:39:59;98690.59;;;11.54
64394;BMP280;50712;49.506;10.400;2024-03-22T00:40:30;98697.28;;;11.53
64394;BMP280;50712;49.506;10.400;2024-03-22T00:41:00;98698.50;;;11.52
64394;BMP280;50712;49.506;10.400;2024-03-22T00:41:31;98699.25;;;11.53
64394;BMP280;50712;49.506;10.400;2024-03-22T00:42:01;98694.22;;;11.51
64394;BMP280;50712;49.506;10.400;2024-03-22T00:42:32;98692.66;;;11.50
64394;BMP280;50712;49.506;10.400;2024-03-22T00:43:02;98696.16;;;11.51
64394;BMP280;50712;49.506;10.400;2024-03-22T00:43:32;98696.16;;;11.51
64394;BMP280;50712;49.506;10.400;2024-03-22T00:44:03;98698.13;;;11.50
64394;BMP280;50712;49.506;10.400;2024-03-22T00:44:33;98696.16;;;11.51
64394;BMP280;50712;49.506;10.400;2024-03-22T00:45:04;98694.22;;;11.51
64394;BMP280;50712;49.506;10.400;2024-03-22T00:45:34;98698.91;;;11.51
64394;BMP280;50712;49.506;10.400;2024-03-22T00:46:05;98699.66;;;11.51
64394;BMP280;50712;49.506;10.400;2024-03-22T00:46:35;98696.53;;;11.53
64394;BMP280;50712;49.506;10.400;2024-03-22T00:47:06;98701.22;;;11.52
64394;BMP280;50712;49.506;10.400;2024-03-22T00:47:37;98698.50;;;11.52
64394;BMP280;50712;49.506;10.400;2024-03-22T00:48:08;98689.53;;;11.52
64394;BMP280;50712;49.506;10.400;2024-03-22T00:48:39;98692.56;;;11.54
64394;BMP280;50712;49.506;10.400;2024-03-22T00:49:10;98701.53;;;11.54
64394;BMP280;50712;49.506;10.400;2024-03-22T00:49:42;98696.06;;;11.54
64394;BMP280;50712;49.506;10.400;2024-03-22T00:50:12;98702.28;;;11.55
64394;BMP280;50712;49.506;10.400;2024-03-22T00:50:43;98694.88;;;11.55
64394;BMP280;50712;49.506;10.400;2024-03-22T00:51:14;98700.34;;;11.55
64394;BMP280;50712;49.506;10.400;2024-03-22T00:51:44;98698.38;;;11.56
64394;BMP280;50712;49.506;10.400;2024-03-22T00:52:17;98701.88;;;11.56
64394;BMP280;50712;49.506;10.400;2024-03-22T00:52:47;98693.69;;;11.56
64394;BMP280;50712;49.506;10.400;2024-03-22T00:53:17;98699.88;;;11.57
64394;BMP280;50712;49.506;10.400;2024-03-22T00:53:48;98694.44;;;11.57
64394;BMP280;50712;49.506;10.400;2024-03-22T00:54:18;98694.44;;;11.57
64394;BMP280;50712;49.506;10.400;2024-03-22T00:54:50;98685.50;;;11.56
64394;BMP280;50712;49.506;10.400;2024-03-22T00:55:20;98690.97;;;11.56
64394;BMP280;50712;49.506;10.400;2024-03-22T00:55:51;98683.50;;;11.57
64394;BMP280;50712;49.506;10.400;2024-03-22T00:56:21;98684.72;;;11.56
64394;BMP280;50712;49.506;10.400;2024-03-22T00:56:52;98675.00;;;11.55
64394;BMP280;50712;49.506;10.400;2024-03-22T00:57:22;98683.97;;;11.55
64394;BMP280;50712;49.506;10.400;2024-03-22T00:57:52;98690.19;;;11.56
64394;BMP280;50712;49.506;10.400;2024-03-22T00:58:23;98684.72;;;11.56
64394;BMP280;50712;49.506;10.400;2024-03-22T00:58:53;98682.00;;;11.56
64394;BMP280;50712;49.506;10.400;2024-03-22T00:59:23;98682.41;;;11.54
64394;BMP280;50712;49.506;10.400;2024-03-22T00:59:54;98685.91;;;11.55
64394;BMP280;50712;49.506;10.400;2024-03-22T01:00:24;98680.44;;;11.55
64394;BMP280;50712;49.506;10.400;2024-03-22T01:00:55;98679.69;;;11.54
64394;BMP280;50712;49.506;10.400;2024-03-22T01:01:25;98683.97;;;11.55
64394;BMP280;50712;49.506;10.400;2024-03-22T01:01:56;98682.88;;;11.53
64394;BMP280;50712;49.506;10.400;2024-03-22T01:02:26;98685.63;;;11.53
64394;BMP280;50712;49.506;10.400;2024-03-22T01:02:56;98678.63;;;11.52
64394;BMP280;50712;49.506;10.400;2024-03-22T01:03:27;98680.56;;;11.51
64394;BMP280;50712;49.506;10.400;2024-03-22T01:03:57;98682.53;;;11.51
64394;BMP280;50712;49.506;10.400;2024-03-22T01:04:27;98683.75;;;11.50
64394;BMP280;50712;49.506;10.400;2024-03-22T01:04:58;98676.75;;;11.49
64394;BMP280;50712;49.506;10.400;2024-03-22T01:05:28;98681.09;;;11.46
64394;BMP280;50712;49.506;10.400;2024-03-22T01:05:59;98679.13;;;11.47
64394;BMP280;50712;49.506;10.400;2024-03-22T01:06:29;98674.13;;;11.45
64394;BMP280;50712;49.506;10.400;2024-03-22T01:06:59;98678.03;;;11.44
64394;BMP280;50712;49.506;10.400;2024-03-22T01:07:30;98682.75;;;11.44
64394;BMP280;50712;49.506;10.400;2024-03-22T01:08:00;98684.72;;;11.43
64394;BMP280;50712;49.506;10.400;2024-03-22T01:08:30;98681.97;;;11.43
64394;BMP280;50712;49.506;10.400;2024-03-22T01:09:01;98680.44;;;11.42
64394;BMP280;50712;49.506;10.400;2024-03-22T01:09:33;98683.16;;;11.42
64394;BMP280;50712;49.506;10.400;2024-03-22T01:10:04;98676.16;;;11.41
64394;BMP280;50712;49.506;10.400;2024-03-22T01:10:34;98678.91;;;11.41
64394;BMP280;50712;49.506;10.400;2024-03-22T01:11:05;98676.16;;;11.41
64394;BMP280;50712;49.506;10.400;2024-03-22T01:11:35;98669.94;;;11.41
64394;BMP280;50712;49.506;10.400;2024-03-22T01:12:05;98670.72;;;11.41
64394;BMP280;50712;49.506;10.400;2024-03-22T01:12:36;98674.66;;;11.40
64394;BMP280;50712;49.506;10.400;2024-03-22T01:13:07;98667.66;;;11.39
64394;BMP280;50712;49.506;10.400;2024-03-22T01:13:37;98664.63;;;11.37
64394;BMP280;50712;49.506;10.400;2024-03-22T01:14:08;98656.84;;;11.36
64394;BMP280;50712;49.506;10.400;2024-03-22T01:14:38;98664.25;;;11.35
64394;BMP280;50712;49.506;10.400;2024-03-22T01:15:09;98662.75;;;11.34
64394;BMP280;50712;49.506;10.400;2024-03-22T01:15:39;98667.84;;;11.32
64394;BMP280;50712;49.506;10.400;2024-03-22T01:16:09;98662.09;;;11.30
64394;BMP280;50712;49.506;10.400;2024-03-22T01:16:40;98658.59;;;11.30
64394;BMP280;50712;49.506;10.400;2024-03-22T01:17:12;98661.00;;;11.28
64394;BMP280;50712;49.506;10.400;2024-03-22T01:17:42;98658.66;;;11.26
64394;BMP280;50712;49.506;10.400;2024-03-22T01:18:12;98664.56;;;11.25
64394;BMP280;50712;49.506;10.400;2024-03-22T01:18:43;98663.47;;;11.22
64394;BMP280;50712;49.506;10.400;2024-03-22T01:19:13;98666.63;;;11.21
64394;BMP280;50712;49.506;10.400;2024-03-22T01:19:43;98663.53;;;11.19
64394;BMP280;50712;49.506;10.400;2024-03-22T01:20:14;98660.06;;;11.18
64394;BMP280;50712;49.506;10.400;2024-03-22T01:20:44;98662.47;;;11.16
64394;BMP280;50712;49.506;10.400;2024-03-22T01:21:15;98662.91;;;11.15
64394;BMP280;50712;49.506;10.400;2024-03-22T01:21:45;98662.56;;;11.12
64394;BMP280;50712;49.506;10.400;2024-03-22T01:22:16;98655.59;;;11.11
64394;BMP280;50712;49.506;10.400;2024-03-22T01:22:47;98654.03;;;11.10
64394;BMP280;50712;49.506;10.400;2024-03-22T01:23:18;98659.16;;;11.08
64394;BMP280;50712;49.506;10.400;2024-03-22T01:23:48;98657.19;;;11.09
64394;BMP280;50712;49.506;10.400;2024-03-22T01:24:19;98655.69;;;11.08
64394;BMP280;50712;49.506;10.400;2024-03-22T01:24:49;98655.34;;;11.06
64394;BMP280;50712;49.506;10.400;2024-03-22T01:25:19;98656.09;;;11.06
64394;BMP280;50712;49.506;10.400;2024-03-22T01:25:50;98649.88;;;11.06
64394;BMP280;50712;49.506;10.400;2024-03-22T01:26:20;98640.94;;;11.05
64394;BMP280;50712;49.506;10.400;2024-03-22T01:26:51;98638.97;;;11.06
64394;BMP280;50712;49.506;10.400;2024-03-22T01:27:21;98640.94;;;11.05
64394;BMP280;50712;49.506;10.400;2024-03-22T01:27:52;98631.22;;;11.04
64394;BMP280;50712;49.506;10.400;2024-03-22T01:28:22;98629.69;;;11.03
64394;BMP280;50712;49.506;10.400;2024-03-22T01:28:52;98626.63;;;11.01
64394;BMP280;50712;49.506;10.400;2024-03-22T01:29:23;98628.16;;;11.02
64394;BMP280;50712;49.506;10.400;2024-03-22T01:29:53;98637.97;;;11.00
64394;BMP280;50712;49.506;10.400;2024-03-22T01:30:24;98637.97;;;11.00
64394;BMP280;50712;49.506;10.400;2024-03-22T01:30:58;98634.47;;;10.99
64394;BMP280;50712;49.506;10.400;2024-03-22T01:31:28;98639.19;;;10.99
64394;BMP280;50712;49.506;10.400;2024-03-22T01:31:59;98636.47;;;10.99
64394;BMP280;50712;49.506;10.400;2024-03-22T01:32:29;98637.19;;;10.99
64394;BMP280;50712;49.506;10.400;2024-03-22T01:33:00;98629.03;;;10.99
64394;BMP280;50712;49.506;10.400;2024-03-22T01:33:31;98638.75;;;11.00
64394;BMP280;50712;49.506;10.400;2024-03-22T01:34:01;98639.94;;;10.99
64394;BMP280;50712;49.506;10.400;2024-03-22T01:34:32;98639.19;;;10.99
64394;BMP280;50712;49.506;10.400;2024-03-22T01:35:02;98634.47;;;10.99
64394;BMP280;50712;49.506;10.400;2024-03-22T01:35:33;98633.72;;;10.99
64394;BMP280;50712;49.506;10.400;2024-03-22T01:36:03;98628.28;;;10.99
64394;BMP280;50712;49.506;10.400;2024-03-22T01:36:35;98628.28;;;10.99
64394;BMP280;50712;49.506;10.400;2024-03-22T01:37:05;98633.72;;;10.99
64394;BMP280;50712;49.506;10.400;2024-03-22T01:37:36;98636.47;;;10.99
64394;BMP280;50712;49.506;10.400;2024-03-22T01:38:07;98636.88;;;10.97
64394;BMP280;50712;49.506;10.400;2024-03-22T01:38:37;98635.31;;;10.96
64394;BMP280;50712;49.506;10.400;2024-03-22T01:39:07;98636.88;;;10.97
64394;BMP280;50712;49.506;10.400;2024-03-22T01:39:38;98632.59;;;10.96
64394;BMP280;50712;49.506;10.400;2024-03-22T01:40:09;98630.66;;;10.97
64394;BMP280;50712;49.506;10.400;2024-03-22T01:40:40;98632.59;;;10.96
64394;BMP280;50712;49.506;10.400;2024-03-22T01:41:10;98634.59;;;10.96
64394;BMP280;50712;49.506;10.400;2024-03-22T01:41:42;98633.03;;;10.95
64394;BMP280;50712;49.506;10.400;2024-03-22T01:42:13;98636.53;;;10.95
64394;BMP280;50712;49.506;10.400;2024-03-22T01:42:44;98633.81;;;10.95
64394;BMP280;50712;49.506;10.400;2024-03-22T01:43:14;98635.75;;;10.95
64394;BMP280;50712;49.506;10.400;2024-03-22T01:43:45;98637.72;;;10.94
64394;BMP280;50712;49.506;10.400;2024-03-22T01:44:15;98633.44;;;10.93
64394;BMP280;50712;49.506;10.400;2024-03-22T01:44:46;98628.00;;;10.93
64394;BMP280;50712;49.506;10.400;2024-03-22T01:45:16;98629.97;;;10.93
64394;BMP280;50712;49.506;10.400;2024-03-22T01:45:46;98633.91;;;10.92
64394;BMP280;50712;49.506;10.400;2024-03-22T01:46:17;98632.38;;;10.91
64394;BMP280;50712;49.506;10.400;2024-03-22T01:46:47;98635.09;;;10.91
64394;BMP280;50712;49.506;10.400;2024-03-22T01:47:18;98634.78;;;10.89
64394;BMP280;50712;49.506;10.400;2024-03-22T01:47:48;98630.50;;;10.88
64394;BMP280;50712;49.506;10.400;2024-03-22T01:48:21;98634.00;;;10.88
64394;BMP280;50712;49.506;10.400;2024-03-22T01:48:51;98635.19;;;10.87
64394;BMP280;50712;49.506;10.400;2024-03-22T01:49:22;98633.66;;;10.86
64394;BMP280;50712;49.506;10.400;2024-03-22T01:49:55;98624.72;;;10.86
64394;BMP280;50712;49.506;10.400;2024-03-22T01:50:26;98634.09;;;10.85
64394;BMP280;50712;49.506;10.400;2024-03-22T01:50:57;98634.84;;;10.85
64394;BMP280;50712;49.506;10.400;2024-03-22T01:51:28;98632.56;;;10.84
64394;BMP280;50712;49.506;10.400;2024-03-22T01:51:58;98639.22;;;10.83
64394;BMP280;50712;49.506;10.400;2024-03-22T01:52:29;98635.72;;;10.82
64394;BMP280;50712;49.506;10.400;2024-03-22T01:53:00;98634.97;;;10.82
64394;BMP280;50712;49.506;10.400;2024-03-22T01:53:31;98637.69;;;10.82
64394;BMP280;50712;49.506;10.400;2024-03-22T01:54:02;98633.84;;;10.79
64394;BMP280;50712;49.506;10.400;2024-03-22T01:54:34;98632.31;;;10.78
64394;BMP280;50712;49.506;10.400;2024-03-22T01:55:05;98633.50;;;10.77
64394;BMP280;50712;49.506;10.400;2024-03-22T01:55:36;98629.28;;;10.76
64394;BMP280;50712;49.506;10.400;2024-03-22T01:56:07;98630.47;;;10.75
64394;BMP280;50712;49.506;10.400;2024-03-22T01:56:38;98618.78;;;10.75
64394;BMP280;50712;49.506;10.400;2024-03-22T01:57:09;98623.13;;;10.72
64394;BMP280;50712;49.506;10.400;2024-03-22T01:57:40;98622.34;;;10.72
64394;BMP280;50712;49.506;10.400;2024-03-22T01:58:15;98629.75;;;10.71
64394;BMP280;50712;49.506;10.400;2024-03-22T01:58:47;98617.78;;;10.69
64394;BMP280;50712;49.506;10.400;2024-03-22T01:59:18;98625.19;;;10.68
64394;BMP280;50712;49.506;10.400;2024-03-22T01:59:49;98618.97;;;10.68
64394;BMP280;50712;49.506;10.400;2024-03-22T02:00:21;98622.13;;;10.66
64394;BMP280;50712;49.506;10.400;2024-03-22T02:00:51;98622.13;;;10.66
64394;BMP280;50712;49.506;10.400;2024-03-22T02:01:22;98617.84;;;10.65
64394;BMP280;50712;49.506;10.400;2024-03-22T02:01:53;98621.78;;;10.64
64394;BMP280;50712;49.506;10.400;2024-03-22T02:02:23;98617.53;;;10.63
64394;BMP280;50712;49.506;10.400;2024-03-22T02:02:53;98626.09;;;10.62
64394;BMP280;50712;49.506;10.400;2024-03-22T02:03:24;98619.91;;;10.61
64394;BMP280;50712;49.506;10.400;2024-03-22T02:03:54;98614.47;;;10.61
64394;BMP280;50712;49.506;10.400;2024-03-22T02:04:25;98612.94;;;10.60
64394;BMP280;50712;49.506;10.400;2024-03-22T02:04:56;98616.09;;;10.59
64394;BMP280;50712;49.506;10.400;2024-03-22T02:05:27;98622.75;;;10.58
64394;BMP280;50712;49.506;10.400;2024-03-22T02:05:58;98612.25;;;10.56
64394;BMP280;50712;49.506;10.400;2024-03-22T02:06:28;98619.66;;;10.56
64394;BMP280;50712;49.506;10.400;2024-03-22T02:06:58;98616.16;;;10.55
64394;BMP280;50712;49.506;10.400;2024-03-22T02:07:29;98613.88;;;10.54
64394;BMP280;50712;49.506;10.400;2024-03-22T02:08:00;98618.56;;;10.53
64394;BMP280;50712;49.506;10.400;2024-03-22T02:08:30;98617.03;;;10.52
64394;BMP280;50712;49.506;10.400;2024-03-22T02:09:01;98612.03;;;10.51
64394;BMP280;50712;49.506;10.400;2024-03-22T02:09:34;98613.22;;;10.50
64394;BMP280;50712;49.506;10.400;2024-03-22T02:10:06;98614.38;;;10.49
64394;BMP280;50712;49.506;10.400;2024-03-22T02:10:38;98615.59;;;10.48
64394;BMP280;50712;49.506;10.400;2024-03-22T02:11:08;98610.56;;;10.46
64394;BMP280;50712;49.506;10.400;2024-03-22T02:11:39;98617.97;;;10.46
64394;BMP280;50712;49.506;10.400;2024-03-22T02:12:10;98611.75;;;10.45
64394;BMP280;50712;49.506;10.400;2024-03-22T02:12:41;98616.47;;;10.45
64394;BMP280;50712;49.506;10.400;2024-03-22T02:13:11;98617.66;;;10.44
64394;BMP280;50712;49.506;10.400;2024-03-22T02:13:41;98615.34;;;10.42
64394;BMP280;50712;49.506;10.400;2024-03-22T02:14:13;98611.88;;;10.42
64394;BMP280;50712;49.506;10.400;2024-03-22T02:14:43;98614.59;;;10.42
64394;BMP280;50712;49.506;10.400;2024-03-22T02:15:14;98621.22;;;10.40
64394;BMP280;50712;49.506;10.400;2024-03-22T02:15:44;98608.38;;;10.41
64394;BMP280;50712;49.506;10.400;2024-03-22T02:16:15;98613.03;;;10.40
64394;BMP280;50712;49.506;10.400;2024-03-22T02:16:45;98614.22;;;10.39
64394;BMP280;50712;49.506;10.400;2024-03-22T02:17:16;98610.72;;;10.39
64394;BMP280;50712;49.506;10.400;2024-03-22T02:17:46;98611.94;;;10.38
64394;BMP280;50712;49.506;10.400;2024-03-22T02:18:16;98607.25;;;10.38
64394;BMP280;50712;49.506;10.400;2024-03-22T02:18:47;98611.94;;;10.38
64394;BMP280;50712;49.506;10.400;2024-03-22T02:19:17;98606.50;;;10.38
64394;BMP280;50712;49.506;10.400;2024-03-22T02:19:47;98602.22;;;10.37
64394;BMP280;50712;49.506;10.400;2024-03-22T02:20:18;98602.69;;;10.35
64394;BMP280;50712;49.506;10.400;2024-03-22T02:20:48;98601.16;;;10.34
64394;BMP280;50712;49.506;10.400;2024-03-22T02:21:19;98603.09;;;10.34
64394;BMP280;50712;49.506;10.400;2024-03-22T02:21:49;98602.75;;;10.32
64394;BMP280;50712;49.506;10.400;2024-03-22T02:22:19;98593.81;;;10.31
64394;BMP280;50712;49.506;10.400;2024-03-22T02:22:50;98601.22;;;10.31
64394;BMP280;50712;49.506;10.400;2024-03-22T02:23:28;98605.13;;;10.30
64394;BMP280;50712;49.506;10.400;2024-03-22T02:24:02;98600.88;;;10.29
64394;BMP280;50712;49.506;10.400;2024-03-22T02:24:32;98598.59;;;10.27
64394;BMP280;50712;49.506;10.400;2024-03-22T02:25:03;98599.78;;;10.26
64394;BMP280;50712;49.506;10.400;2024-03-22T02:25:33;98594.75;;;10.25
64394;BMP280;50712;49.506;10.400;2024-03-22T02:26:04;98596.72;;;10.24
64394;BMP280;50712;49.506;10.400;2024-03-22T02:26:35;98589.72;;;10.23
64394;BMP280;50712;49.506;10.400;2024-03-22T02:27:05;98597.16;;;10.23
64394;BMP280;50712;49.506;10.400;2024-03-22T02:27:36;98590.16;;;10.22
64394;BMP280;50712;49.506;10.400;2024-03-22T02:28:08;98592.88;;;10.22
64394;BMP280;50712;49.506;10.400;2024-03-22T02:28:39;98596.78;;;10.21
64394;BMP280;50712;49.506;10.400;2024-03-22T02:29:09;98593.28;;;10.20
64394;BMP280;50712;49.506;10.400;2024-03-22T02:29:40;98587.53;;;10.18
64394;BMP280;50712;49.506;10.400;2024-03-22T02:30:10;98586.75;;;10.18
64394;BMP280;50712;49.506;10.400;2024-03-22T02:30:40;98587.19;;;10.16
64394;BMP280;50712;49.506;10.400;2024-03-22T02:31:11;98594.59;;;10.16
64394;BMP280;50712;49.506;10.400;2024-03-22T02:31:41;98586.44;;;10.16
64394;BMP280;50712;49.506;10.400;2024-03-22T02:32:11;98588.78;;;10.14
64394;BMP280;50712;49.506;10.400;2024-03-22T02:32:42;98592.28;;;10.14
64394;BMP280;50712;49.506;10.400;2024-03-22T02:33:12;98588.03;;;10.13
64394;BMP280;50712;49.506;10.400;2024-03-22T02:33:42;98591.19;;;10.12
64394;BMP280;50712;49.506;10.400;2024-03-22T02:34:13;98585.75;;;10.12
64394;BMP280;50712;49.506;10.400;2024-03-22T02:34:43;98581.50;;;10.11
64394;BMP280;50712;49.506;10.400;2024-03-22T02:35:14;98587.38;;;10.09
64394;BMP280;50712;49.506;10.400;2024-03-22T02:35:47;98588.88;;;10.10
64394;BMP280;50712;49.506;10.400;2024-03-22T02:36:18;98588.53;;;10.08
64394;BMP280;50712;49.506;10.400;2024-03-22T02:36:48;98592.03;;;10.09
64394;BMP280;50712;49.506;10.400;2024-03-22T02:37:19;98580.81;;;10.07
64394;BMP280;50712;49.506;10.400;2024-03-22T02:37:49;98586.25;;;10.07
64394;BMP280;50712;49.506;10.400;2024-03-22T02:38:20;98583.94;;;10.05
64394;BMP280;50712;49.506;10.400;2024-03-22T02:38:50;98583.16;;;10.05
64394;BMP280;50712;49.506;10.400;2024-03-22T02:39:20;98577.41;;;10.03
64394;BMP280;50712;49.506;10.400;2024-03-22T02:39:51;98580.13;;;10.03
64394;BMP280;50712;49.506;10.400;2024-03-22T02:40:21;98582.09;;;10.02
64394;BMP280;50712;49.506;10.400;2024-03-22T02:40:52;98581.31;;;10.02
64394;BMP280;50712;49.506;10.400;2024-03-22T02:41:23;98582.50;;;10.01
64394;BMP280;50712;49.506;10.400;2024-03-22T02:41:53;98579.03;;;10.00
64394;BMP280;50712;49.506;10.400;2024-03-22T02:42:23;98580.22;;;9.99
64394;BMP280;50712;49.506;10.400;2024-03-22T02:42:53;98576.72;;;9.99
64394;BMP280;50712;49.506;10.400;2024-03-22T02:43:24;98584.13;;;9.98
64394;BMP280;50712;49.506;10.400;2024-03-22T02:43:54;98577.91;;;9.98
64394;BMP280;50712;49.506;10.400;2024-03-22T02:44:25;98576.38;;;9.97
64394;BMP280;50712;49.506;10.400;2024-03-22T02:44:55;98581.81;;;9.97
64394;BMP280;50712;49.506;10.400;2024-03-22T02:45:25;98580.28;;;9.96
64394;BMP280;50712;49.506;10.400;2024-03-22T02:45:56;98574.84;;;9.96
64394;BMP280;50712;49.506;10.400;2024-03-22T02:46:26;98574.53;;;9.94
64394;BMP280;50712;49.506;10.400;2024-03-22T02:46:56;98575.31;;;9.94
64394;BMP280;50712;49.506;10.400;2024-03-22T02:47:27;98567.53;;;9.93
64394;BMP280;50712;49.506;10.400;2024-03-22T02:47:57;98572.97;;;9.93
64394;BMP280;50712;49.506;10.400;2024-03-22T02:48:27;98572.22;;;9.92
64394;BMP280;50712;49.506;10.400;2024-03-22T02:48:58;98573.38;;;9.91
64394;BMP280;50712;49.506;10.400;2024-03-22T02:49:29;98572.66;;;9.91
64394;BMP280;50712;49.506;10.400;2024-03-22T02:49:59;98568.38;;;9.90
64394;BMP280;50712;49.506;10.400;2024-03-22T02:50:36;98571.09;;;9.90
64394;BMP280;50712;49.506;10.400;2024-03-22T02:51:07;98573.06;;;9.89
64394;BMP280;50712;49.506;10.400;2024-03-22T02:51:37;98575.00;;;9.89
64394;BMP280;50712;49.506;10.400;2024-03-22T02:52:07;98568.78;;;9.88
64394;BMP280;50712;49.506;10.400;2024-03-22T02:52:38;98566.50;;;9.87
64394;BMP280;50712;49.506;10.400;2024-03-22T02:53:09;98565.31;;;9.88
64394;BMP280;50712;49.506;10.400;2024-03-22T02:53:39;98567.69;;;9.86
64394;BMP280;50712;49.506;10.400;2024-03-22T02:54:09;98564.97;;;9.86